createdAt,value
2019-03-27T00:02:13.294Z,61.73
2019-03-27T00:04:49.390Z,57.38
2019-03-27T00:07:23.421Z,59.90
2019-03-27T00:09:58.347Z,58.48
2019-03-27T00:12:32.906Z,53.87
2019-03-27T00:15:12.638Z,60.53
2019-03-27T00:17:39.742Z,60.90
2019-03-27T00:20:11.608Z,54.27
2019-03-27T00:22:44.391Z,55.17
2019-03-27T00:25:16.407Z,53.30
2019-03-27T00:27:51.119Z,89.90
2019-03-27T00:30:24.327Z,59.35
2019-03-27T00:32:56.148Z,74.42
2019-03-27T00:35:28.990Z,69.45
2019-03-27T00:38:01.943Z,51.98
2019-03-27T00:40:37.719Z,79.20
2019-03-27T00:43:10.580Z,55.43
2019-03-27T00:45:44.701Z,50.28
2019-03-27T00:48:17.494Z,45.20
2019-03-27T00:50:51.413Z,46.80
2019-03-27T00:53:25.717Z,47.95
2019-03-27T00:56:00.180Z,61.50
2019-03-27T01:01:08.385Z,47.98
2019-03-27T01:03:40.434Z,49.65
2019-03-27T01:06:13.503Z,47.70
2019-03-27T01:08:46.041Z,46.48
2019-03-27T01:11:18.804Z,47.98
2019-03-27T01:13:51.734Z,47.38
2019-03-27T01:16:24.801Z,46.63
2019-03-27T01:18:57.736Z,53.20
2019-03-27T01:21:29.576Z,51.18
2019-03-27T01:24:02.458Z,48.87
2019-03-27T01:26:36.837Z,52.45
2019-03-27T01:29:11.186Z,61.90
2019-03-27T01:31:43.963Z,53.35
2019-03-27T01:34:15.493Z,50.17
2019-03-27T01:36:48.423Z,51.80
2019-03-27T01:39:24.270Z,51.08
2019-03-27T01:41:58.324Z,50.43
2019-03-27T01:44:29.987Z,60.43
2019-03-27T01:47:04.459Z,66.82
2019-03-27T01:49:36.615Z,67.13
2019-03-27T01:52:11.826Z,61.23
2019-03-27T01:54:53.530Z,53.08
2019-03-27T01:57:29.571Z,50.25
2019-03-27T02:00:01.949Z,52.45
2019-03-27T02:02:34.747Z,53.52
2019-03-27T02:05:11.587Z,56.02
2019-03-27T02:07:45.640Z,54.40
2019-03-27T02:10:17.507Z,56.85
2019-03-27T02:12:49.535Z,57.88
2019-03-27T02:15:22.390Z,57.00
2019-03-27T02:17:58.762Z,56.53
2019-03-27T02:20:36.637Z,56.05
2019-03-27T02:23:09.672Z,56.15
2019-03-27T02:25:52.451Z,57.23
2019-03-27T02:28:25.290Z,54.77
2019-03-27T02:30:58.235Z,53.33
2019-03-27T02:33:30.097Z,52.53
2019-03-27T02:36:03.015Z,51.92
2019-03-27T02:38:36.061Z,52.27
2019-03-27T02:41:07.993Z,49.38
2019-03-27T02:43:41.684Z,47.15
2019-03-27T02:46:24.487Z,45.43
2019-03-27T02:48:50.703Z,45.25
2019-03-27T02:51:23.055Z,42.62
2019-03-27T02:53:58.827Z,40.83
2019-03-27T02:56:30.600Z,41.37
2019-03-27T02:59:02.638Z,42.88
2019-03-27T03:01:34.222Z,38.35
2019-03-27T03:04:10.002Z,41.33
2019-03-27T03:06:47.532Z,38.67
2019-03-27T03:09:20.342Z,40.78
2019-03-27T03:11:55.133Z,39.27
2019-03-27T03:14:27.099Z,37.30
2019-03-27T03:16:58.972Z,39.42
2019-03-27T03:19:33.845Z,38.80
2019-03-27T03:22:06.359Z,39.85
2019-03-27T03:24:45.295Z,38.90
2019-03-27T03:27:22.262Z,37.35
2019-03-27T03:30:06.361Z,37.70
2019-03-27T03:32:38.181Z,37.20
2019-03-27T03:35:14.380Z,36.58
2019-03-27T03:37:49.884Z,36.53
2019-03-27T03:40:23.290Z,35.85
2019-03-27T03:42:57.400Z,35.10
2019-03-27T03:45:32.122Z,35.88
2019-03-27T03:48:06.652Z,36.20
2019-03-27T03:50:44.749Z,33.35
2019-03-27T03:53:17.417Z,34.60
2019-03-27T03:55:51.155Z,32.30
2019-03-27T03:58:24.115Z,32.35
2019-03-27T04:00:56.555Z,33.13
2019-03-27T04:03:29.189Z,34.08
2019-03-27T04:06:07.647Z,35.88
2019-03-27T04:08:42.386Z,31.90
2019-03-27T04:11:17.657Z,31.90
2019-03-27T04:13:53.573Z,31.52
2019-03-27T04:16:28.083Z,31.52
2019-03-27T04:18:59.787Z,32.58
2019-03-27T04:21:32.917Z,31.45
2019-03-27T04:24:04.550Z,31.27
2019-03-27T04:26:37.619Z,28.75
2019-03-27T04:29:11.241Z,27.20
2019-03-27T04:31:46.033Z,26.15
2019-03-27T04:34:17.721Z,26.55
2019-03-27T04:36:49.503Z,26.33
2019-03-27T04:39:21.949Z,23.27
2019-03-27T04:41:55.787Z,24.20
2019-03-27T04:44:29.213Z,24.30
2019-03-27T04:47:02.494Z,27.22
2019-03-27T04:49:36.162Z,29.15
2019-03-27T04:52:08.906Z,27.60
2019-03-27T04:54:41.895Z,27.52
2019-03-27T04:57:13.504Z,27.82
2019-03-27T04:59:46.156Z,26.23
2019-03-27T05:02:19.308Z,24.63
2019-03-27T05:04:51.694Z,26.60
2019-03-27T05:07:25.398Z,29.10
2019-03-27T05:10:01.483Z,28.73
2019-03-27T05:12:34.198Z,27.25
2019-03-27T05:15:07.945Z,29.30
2019-03-27T05:17:46.329Z,29.65
2019-03-27T05:20:14.992Z,29.15
2019-03-27T05:22:48.047Z,26.87
2019-03-27T05:25:22.278Z,30.48
2019-03-27T05:27:55.283Z,29.70
2019-03-27T05:30:30.384Z,28.02
2019-03-27T05:33:10.604Z,28.50
2019-03-27T05:35:43.040Z,29.07
2019-03-27T05:38:15.951Z,27.25
2019-03-27T05:40:51.591Z,28.67
2019-03-27T05:43:24.443Z,28.87
2019-03-27T05:45:57.593Z,27.25
2019-03-27T05:48:33.708Z,29.30
2019-03-27T05:51:05.721Z,27.87
2019-03-27T05:53:38.576Z,27.70
2019-03-27T05:56:12.986Z,28.00
2019-03-27T05:58:50.598Z,29.32
2019-03-27T06:01:23.387Z,27.32
2019-03-27T06:03:55.954Z,27.75
2019-03-27T06:06:30.871Z,25.60
2019-03-27T06:09:05.711Z,25.00
2019-03-27T06:14:13.692Z,23.90
2019-03-27T06:16:49.279Z,23.47
2019-03-27T06:19:23.777Z,25.23
2019-03-27T06:21:58.497Z,25.55
2019-03-27T06:24:39.168Z,24.43
2019-03-27T06:27:12.059Z,24.57
2019-03-27T06:29:46.737Z,23.98
2019-03-27T06:32:25.320Z,25.15
2019-03-27T06:34:58.876Z,24.37
2019-03-27T06:37:33.157Z,24.18
2019-03-27T06:40:05.264Z,27.35
2019-03-27T06:42:41.003Z,27.25
2019-03-27T06:45:12.588Z,28.15
2019-03-27T06:47:45.513Z,26.77
2019-03-27T06:50:17.147Z,26.45
2019-03-27T06:52:51.503Z,25.90
2019-03-27T06:55:24.292Z,25.60
2019-03-27T06:57:59.501Z,28.07
2019-03-27T07:00:35.988Z,26.82
2019-03-27T07:03:10.438Z,26.80
2019-03-27T07:05:43.057Z,26.27
2019-03-27T07:08:18.618Z,26.00
2019-03-27T07:10:51.253Z,25.52
2019-03-27T07:13:24.199Z,27.15
2019-03-27T07:15:56.617Z,25.82
2019-03-27T07:18:40.039Z,26.42
2019-03-27T07:21:04.871Z,27.32
2019-03-27T07:23:36.554Z,27.07
2019-03-27T07:26:15.046Z,26.37
2019-03-27T07:28:48.324Z,26.05
2019-03-27T07:31:23.395Z,25.57
2019-03-27T07:33:56.000Z,26.80
2019-03-27T07:36:30.963Z,26.62
2019-03-27T07:39:11.194Z,24.80
2019-03-27T07:41:41.297Z,25.77
2019-03-27T07:44:22.189Z,24.25
2019-03-27T07:47:16.365Z,24.55
2019-03-27T07:49:49.061Z,25.50
2019-03-27T07:52:23.594Z,25.30
2019-03-27T07:54:57.849Z,24.00
2019-03-27T07:57:30.346Z,23.87
2019-03-27T08:00:05.003Z,23.32
2019-03-27T08:02:39.239Z,23.73
2019-03-27T08:05:11.615Z,25.23
2019-03-27T08:07:46.982Z,23.07
2019-03-27T08:10:19.927Z,24.32
2019-03-27T08:12:52.458Z,25.20
2019-03-27T08:15:23.892Z,23.92
2019-03-27T08:17:56.655Z,25.88
2019-03-27T08:20:31.563Z,25.12
2019-03-27T08:23:06.306Z,24.65
2019-03-27T08:28:10.506Z,24.27
2019-03-27T08:30:42.459Z,23.65
2019-03-27T08:33:19.559Z,23.45
2019-03-27T08:35:52.507Z,24.60
2019-03-27T08:38:25.005Z,24.82
2019-03-27T08:40:58.891Z,24.50
2019-03-27T08:43:31.318Z,24.50
2019-03-27T08:46:04.332Z,24.67
2019-03-27T08:48:38.897Z,24.32
2019-03-27T08:51:11.654Z,24.00
2019-03-27T08:56:21.096Z,23.02
2019-03-27T08:58:53.794Z,23.20
2019-03-27T09:01:25.716Z,24.07
2019-03-27T09:03:57.350Z,24.07
2019-03-27T09:06:34.034Z,24.70
2019-03-27T09:09:04.731Z,23.77
2019-03-27T09:11:38.048Z,23.38
2019-03-27T09:14:15.376Z,24.45
2019-03-27T09:16:49.599Z,25.92
2019-03-27T09:19:35.520Z,24.72
2019-03-27T09:22:00.908Z,24.25
2019-03-27T09:24:35.041Z,23.20
2019-03-27T09:27:06.707Z,23.98
2019-03-27T09:29:38.946Z,24.67
2019-03-27T09:32:13.552Z,23.38
2019-03-27T09:34:45.439Z,23.30
2019-03-27T09:37:17.158Z,22.82
2019-03-27T09:39:52.740Z,23.55
2019-03-27T09:42:27.100Z,22.37
2019-03-27T09:45:01.523Z,24.87
2019-03-27T09:47:34.817Z,22.80
2019-03-27T09:50:09.659Z,23.67
2019-03-27T09:55:20.267Z,22.50
2019-03-27T10:01:00.188Z,23.87
2019-03-27T10:03:32.827Z,22.77
2019-03-27T10:06:05.780Z,24.25
2019-03-27T10:08:38.705Z,24.37
2019-03-27T10:11:10.468Z,22.98
2019-03-27T10:13:43.362Z,23.10
2019-03-27T10:16:15.813Z,23.10
2019-03-27T10:18:48.683Z,24.27
2019-03-27T10:21:20.623Z,24.40
2019-03-27T10:23:53.430Z,24.07
2019-03-27T10:26:26.530Z,24.50
2019-03-27T10:28:59.079Z,23.83
2019-03-27T10:31:31.924Z,24.92
2019-03-27T10:34:04.459Z,24.40
2019-03-27T10:36:37.646Z,24.57
2019-03-27T10:39:11.023Z,23.47
2019-03-27T10:41:45.788Z,25.00
2019-03-27T10:46:53.162Z,25.90
2019-03-27T10:49:27.578Z,26.17
2019-03-27T10:52:06.363Z,24.60
2019-03-27T10:54:43.172Z,24.65
2019-03-27T10:57:17.646Z,24.30
2019-03-27T10:59:52.257Z,25.02
2019-03-27T11:02:26.933Z,25.90
2019-03-27T11:05:01.226Z,25.75
2019-03-27T11:07:34.283Z,29.05
2019-03-27T11:10:07.511Z,21.48
2019-03-27T11:15:42.327Z,19.87
2019-03-27T11:18:13.750Z,20.80
2019-03-27T11:20:46.233Z,20.72
2019-03-27T11:23:20.068Z,23.07
2019-03-27T11:25:52.251Z,22.77
2019-03-27T11:28:24.835Z,22.85
2019-03-27T11:30:58.747Z,21.73
2019-03-27T11:33:30.297Z,21.42
2019-03-27T11:36:01.547Z,20.82
2019-03-27T11:38:37.564Z,20.77
2019-03-27T11:41:12.064Z,20.08
2019-03-27T11:43:54.316Z,20.12
2019-03-27T11:46:16.432Z,20.08
2019-03-27T11:48:48.587Z,21.20
2019-03-27T11:51:25.121Z,20.77
2019-03-27T11:54:02.898Z,19.42
2019-03-27T11:56:34.427Z,19.15
2019-03-27T11:59:05.631Z,19.95
2019-03-27T12:01:43.463Z,19.77
2019-03-27T12:04:13.610Z,18.95
2019-03-27T12:06:48.372Z,19.15
2019-03-27T12:09:20.595Z,19.45
2019-03-27T12:11:56.060Z,20.32
2019-03-27T12:14:30.692Z,19.45
2019-03-27T12:17:02.221Z,19.10
2019-03-27T12:19:37.640Z,18.80
2019-03-27T12:22:08.627Z,18.90
2019-03-27T12:24:40.754Z,18.82
2019-03-27T12:27:13.407Z,19.42
2019-03-27T12:29:45.569Z,18.15
2019-03-27T12:32:17.853Z,16.60
2019-03-27T12:34:49.081Z,17.05
2019-03-27T12:37:21.351Z,18.40
2019-03-27T12:39:53.918Z,19.00
2019-03-27T12:42:26.052Z,17.77
2019-03-27T12:45:01.497Z,18.23
2019-03-27T12:47:30.793Z,18.70
2019-03-27T12:50:03.514Z,19.27
2019-03-27T12:52:40.462Z,19.65
2019-03-27T12:55:14.803Z,21.35
2019-03-27T12:57:47.241Z,19.53
2019-03-27T13:03:38.606Z,23.05
2019-03-27T13:06:11.221Z,23.57
2019-03-27T13:08:45.349Z,24.35
2019-03-27T13:11:17.691Z,23.85
2019-03-27T13:13:50.314Z,24.50
2019-03-27T13:16:22.583Z,25.90
2019-03-27T13:18:53.876Z,24.60
2019-03-27T13:21:26.955Z,23.35
2019-03-27T13:23:59.737Z,22.37
2019-03-27T13:26:32.993Z,21.77
2019-03-27T13:29:07.340Z,18.92
2019-03-27T13:31:39.531Z,17.17
2019-03-27T13:34:13.708Z,16.55
2019-03-27T13:36:50.255Z,17.65
2019-03-27T13:39:22.595Z,18.02
2019-03-27T13:41:54.674Z,18.27
2019-03-27T13:44:36.912Z,19.75
2019-03-27T13:46:59.699Z,21.73
2019-03-27T13:49:37.140Z,23.40
2019-03-27T13:52:12.278Z,23.15
2019-03-27T13:57:18.827Z,22.58
2019-03-27T13:59:53.459Z,21.05
2019-03-27T14:02:25.614Z,22.85
2019-03-27T14:04:58.014Z,21.97
2019-03-27T14:07:30.406Z,23.65
2019-03-27T14:10:04.523Z,24.27
2019-03-27T14:12:36.939Z,26.95
2019-03-27T14:15:10.612Z,24.57
2019-03-27T14:17:43.166Z,24.67
2019-03-27T14:20:23.638Z,25.02
2019-03-27T14:22:56.092Z,25.65
2019-03-27T14:25:28.695Z,26.35
2019-03-27T14:28:02.797Z,25.70
2019-03-27T14:30:36.556Z,27.75
2019-03-27T14:33:08.755Z,27.80
2019-03-27T14:35:40.868Z,26.07
2019-03-27T14:38:13.169Z,25.50
2019-03-27T14:40:45.292Z,24.63
2019-03-27T14:43:17.775Z,27.15
2019-03-27T14:45:52.249Z,25.23
2019-03-27T14:48:24.752Z,25.87
2019-03-27T14:50:56.868Z,26.12
2019-03-27T14:53:30.647Z,25.80
2019-03-27T14:56:02.868Z,24.57
2019-03-27T14:58:34.473Z,24.85
2019-03-27T15:01:05.720Z,25.25
2019-03-27T15:03:38.315Z,27.25
2019-03-27T15:06:12.762Z,25.02
2019-03-27T15:08:44.974Z,25.90
2019-03-27T15:11:16.405Z,26.87
2019-03-27T15:13:48.808Z,26.35
2019-03-27T15:16:21.108Z,26.02
2019-03-27T15:18:53.207Z,27.93
2019-03-27T15:21:25.764Z,26.20
2019-03-27T15:23:57.855Z,26.62
2019-03-27T15:26:30.439Z,25.82
2019-03-27T15:29:04.788Z,24.65
2019-03-27T15:31:36.145Z,24.95
2019-03-27T15:34:08.246Z,25.05
2019-03-27T15:36:42.774Z,26.82
2019-03-27T15:39:17.409Z,25.90
2019-03-27T15:41:49.640Z,26.10
2019-03-27T15:44:21.996Z,26.20
2019-03-27T15:46:56.320Z,29.55
2019-03-27T15:49:30.610Z,28.55
2019-03-27T15:52:02.810Z,28.62
2019-03-27T15:54:35.549Z,26.73
2019-03-27T15:57:07.639Z,25.82
2019-03-27T15:59:38.925Z,27.50
2019-03-27T16:02:11.588Z,29.15
2019-03-27T16:04:43.801Z,30.72
2019-03-27T16:07:18.998Z,28.07
2019-03-27T16:09:51.202Z,28.90
2019-03-27T16:12:22.650Z,30.77
2019-03-27T16:14:55.107Z,30.02
2019-03-27T16:17:27.456Z,32.15
2019-03-27T16:19:59.790Z,31.60
2019-03-27T16:22:34.220Z,32.13
2019-03-27T16:25:08.432Z,34.03
2019-03-27T16:27:41.108Z,35.45
2019-03-27T16:30:12.779Z,37.13
2019-03-27T16:32:50.389Z,36.30
2019-03-27T16:35:25.302Z,34.33
2019-03-27T16:38:00.615Z,34.40
2019-03-27T16:40:39.433Z,36.28
2019-03-27T16:43:11.785Z,35.65
2019-03-27T16:45:44.058Z,36.60
2019-03-27T16:48:17.595Z,35.28
2019-03-27T16:50:49.052Z,35.38
2019-03-27T16:53:21.178Z,36.40
2019-03-27T16:55:56.013Z,36.33
2019-03-27T16:58:30.666Z,36.73
2019-03-27T17:01:01.906Z,36.90
2019-03-27T17:03:36.473Z,37.60
2019-03-27T17:06:14.926Z,37.57
2019-03-27T17:08:47.083Z,37.05
2019-03-27T17:11:18.455Z,34.70
2019-03-27T17:13:50.717Z,33.88
2019-03-27T17:16:26.155Z,34.20
2019-03-27T17:21:30.019Z,33.13
2019-03-27T17:24:02.345Z,33.42
2019-03-27T17:26:34.571Z,31.68
2019-03-27T17:29:08.042Z,34.48
2019-03-27T17:31:40.234Z,32.35
2019-03-27T17:34:12.887Z,31.55
2019-03-27T17:36:45.074Z,31.15
2019-03-27T17:39:16.326Z,32.30
2019-03-27T17:41:48.525Z,32.50
2019-03-27T17:44:20.950Z,31.57
2019-03-27T17:46:55.188Z,32.08
2019-03-27T17:49:29.210Z,32.83
2019-03-27T17:52:02.038Z,33.02
2019-03-27T17:54:34.294Z,31.97
2019-03-27T17:57:05.752Z,32.50
2019-03-27T17:59:37.938Z,33.98
2019-03-27T18:02:14.896Z,32.67
2019-03-27T18:04:47.129Z,34.27
2019-03-27T18:07:18.497Z,31.82
2019-03-27T18:09:50.606Z,34.43
2019-03-27T18:12:22.998Z,32.58
2019-03-27T18:14:55.340Z,32.98
2019-03-27T18:17:29.176Z,32.15
2019-03-27T18:20:02.576Z,32.93
2019-03-27T18:22:34.715Z,33.95
2019-03-27T18:25:07.043Z,32.50
2019-03-27T18:27:40.808Z,35.10
2019-03-27T18:30:12.674Z,32.13
2019-03-27T18:32:43.899Z,34.43
2019-03-27T18:35:17.884Z,33.00
2019-03-27T18:37:49.067Z,33.15
2019-03-27T18:40:20.327Z,31.07
2019-03-27T18:42:55.690Z,33.13
2019-03-27T18:47:57.059Z,33.55
2019-03-27T18:50:29.223Z,34.38
2019-03-27T18:53:00.654Z,36.45
2019-03-27T18:55:32.988Z,32.98
2019-03-27T18:58:05.297Z,33.90
2019-03-27T19:00:39.691Z,32.80
2019-03-27T19:03:12.185Z,35.03
2019-03-27T19:05:46.457Z,34.08
2019-03-27T19:08:20.682Z,32.42
2019-03-27T19:13:39.605Z,35.13
2019-03-27T19:16:12.150Z,33.67
2019-03-27T19:18:43.323Z,33.95
2019-03-27T19:21:14.858Z,32.98
2019-03-27T19:23:51.018Z,36.68
2019-03-27T19:26:25.078Z,34.90
2019-03-27T19:28:57.386Z,35.00
2019-03-27T19:31:28.647Z,35.05
2019-03-27T19:34:00.062Z,37.53
2019-03-27T19:36:32.742Z,35.95
2019-03-27T19:39:06.790Z,36.85
2019-03-27T19:41:39.122Z,38.28
2019-03-27T19:44:11.536Z,35.23
2019-03-27T19:46:43.821Z,38.60
2019-03-27T19:49:16.112Z,38.88
2019-03-27T19:51:48.539Z,39.75
2019-03-27T19:54:26.957Z,38.88
2019-03-27T19:56:53.443Z,40.38
2019-03-27T19:59:25.511Z,40.38
2019-03-27T20:01:58.151Z,38.85
2019-03-27T20:04:29.470Z,41.68
2019-03-27T20:07:00.594Z,37.83
2019-03-27T20:09:31.975Z,39.48
2019-03-27T20:12:05.178Z,39.63
2019-03-27T20:14:36.515Z,42.00
2019-03-27T20:17:08.819Z,41.23
2019-03-27T20:19:40.307Z,41.65
2019-03-27T20:22:11.575Z,42.15
2019-03-27T20:24:42.718Z,43.33
2019-03-27T20:27:16.745Z,42.78
2019-03-27T20:29:48.883Z,47.08
2019-03-27T20:32:21.478Z,42.60
2019-03-27T20:34:52.838Z,47.55
2019-03-27T20:37:26.714Z,47.75
2019-03-27T20:39:58.831Z,46.75
2019-03-27T20:42:31.208Z,44.98
2019-03-27T20:45:02.230Z,49.27
2019-03-27T20:47:34.386Z,48.87
2019-03-27T20:50:07.179Z,49.35
2019-03-27T20:52:39.157Z,48.95
2019-03-27T20:55:10.492Z,49.27
2019-03-27T20:57:44.377Z,49.08
2019-03-27T21:00:15.828Z,51.68
2019-03-27T21:02:49.655Z,52.85
2019-03-27T21:05:22.053Z,50.52
2019-03-27T21:07:53.573Z,52.40
2019-03-27T21:10:25.585Z,53.73
2019-03-27T21:12:57.556Z,52.78
2019-03-27T21:15:28.935Z,52.43
2019-03-27T21:18:00.921Z,53.60
2019-03-27T21:20:33.064Z,52.38
2019-03-27T21:23:05.417Z,54.67
2019-03-27T21:25:36.806Z,53.98
2019-03-27T21:28:07.861Z,56.00
2019-03-27T21:30:40.457Z,53.05
2019-03-27T21:33:11.674Z,56.23
2019-03-27T21:35:44.310Z,51.83
2019-03-27T21:38:15.558Z,54.55
2019-03-27T21:40:46.654Z,54.93
2019-03-27T21:43:18.129Z,53.68
2019-03-27T21:45:49.155Z,54.67
2019-03-27T21:48:20.185Z,54.80
2019-03-27T21:50:54.410Z,54.67
2019-03-27T21:53:27.221Z,55.45
2019-03-27T21:55:59.530Z,53.55
2019-03-27T21:58:31.854Z,55.08
2019-03-27T22:01:03.293Z,54.80
2019-03-27T22:03:35.731Z,54.77
2019-03-27T22:06:06.997Z,52.93
2019-03-27T22:08:39.442Z,52.88
2019-03-27T22:11:11.776Z,51.23
2019-03-27T22:13:43.174Z,53.90
2019-03-27T22:16:14.473Z,52.33
2019-03-27T22:18:45.603Z,52.62
2019-03-27T22:21:16.962Z,52.83
2019-03-27T22:23:49.050Z,54.83
2019-03-27T22:26:22.722Z,55.15
2019-03-27T22:28:55.301Z,55.38
2019-03-27T22:31:28.182Z,55.17
2019-03-27T22:33:59.649Z,52.98
2019-03-27T22:36:30.999Z,52.30
2019-03-27T22:39:03.632Z,49.00
2019-03-27T22:41:35.303Z,50.40
2019-03-27T22:44:07.415Z,48.83
2019-03-27T22:46:41.741Z,48.85
2019-03-27T22:49:15.790Z,46.40
2019-03-27T22:51:48.038Z,47.70
2019-03-27T22:54:19.397Z,46.90
2019-03-27T22:56:50.877Z,44.77
2019-03-27T22:59:24.819Z,47.48
2019-03-27T23:01:56.395Z,45.25
2019-03-27T23:04:29.019Z,46.68
2019-03-27T23:07:01.718Z,48.05
2019-03-27T23:09:32.759Z,47.75
2019-03-27T23:12:05.309Z,46.65
2019-03-27T23:14:36.325Z,47.10
2019-03-27T23:17:08.724Z,49.03
2019-03-27T23:19:41.047Z,48.90
2019-03-27T23:22:14.022Z,47.93
2019-03-27T23:24:46.178Z,47.70
2019-03-27T23:27:18.493Z,49.27
2019-03-27T23:29:51.916Z,49.00
2019-03-27T23:32:24.807Z,46.60
2019-03-27T23:34:56.885Z,51.05
2019-03-27T23:37:28.302Z,48.00
2019-03-27T23:40:03.132Z,48.98
2019-03-27T23:42:36.103Z,47.78
2019-03-27T23:45:09.809Z,49.03
2019-03-27T23:47:43.150Z,47.35
2019-03-27T23:50:17.280Z,48.05
2019-03-27T23:52:51.679Z,49.33
2019-03-27T23:55:22.745Z,46.80
2019-03-27T23:57:57.194Z,46.83
